Impacts METAR Board
IDs:

KTPA - Tampa Intl Arpt, FL, US

Updated at: 1500 UTC 26 Apr 2018
Potential Impact None Slight Moderate High
Time 26/03Z 26/04Z 26/05Z 26/06Z 26/07Z 26/08Z 26/09Z 26/10Z 26/11Z 26/12Z 26/13Z 26/14Z 26/15Z
Temp68 68 68 67 67 67 67 68 68 70 73 74
Dewpt57 57 57 58 58 58 59 59 60 61 62 62
Altim29.97 29.96 29.95 29.93 29.92 29.92 29.91 29.91 29.91 29.94 29.95 29.95
VIS10 10 10 10 10 10 10 10 10 10 10 10
CIG-- -- -- -- -- -- -- -- 31 -- -- --
CoverFEWCLRCLRCLRCLRCLRCLRCLRBKNSCTSCTSCT
FltCatVFRVFRVFRVFRVFRVFRVFRVFRVFRVFRVFRVFR
WX------------------------
WDir310310290310300310310280250250250230
WSpd6 5 3 4 4 5 4 3 4 7 7 6
WGst-- -- -- -- -- -- -- -- -- -- -- --
Raw hourly METARs
KTPA 260253Z 31006KT 10SM FEW025 20/14 A2997 RMK AO2 SLP147 T02000139 51014
KTPA 260353Z 31005KT 10SM CLR 20/14 A2996 RMK AO2 SLP144 T02000139
KTPA 260453Z 29003KT 10SM CLR 20/14 A2995 RMK AO2 SLP142 T02000139 402610189
KTPA 260553Z COR 31004KT 10SM CLR 19/14 A2993 RMK AO2 SLP135 T01940144 10217 20189 58012
KTPA 260653Z 30004KT 10SM CLR 19/14 A2992 RMK AO2 SLP132 T01940144
KTPA 260753Z 31005KT 10SM CLR 19/14 A2992 RMK AO2 SLP130 T01940144
KTPA 260853Z 31004KT 10SM CLR 19/15 A2991 RMK AO2 SLP129 T01940150 56006
KTPA 260953Z 28003KT 10SM CLR 20/15 A2991 RMK AO2 SLP127 T02000150
KTPA 261053Z 25004KT 10SM SCT024 BKN031 20/16 A2991 RMK AO2 SLP129 T02000156
KTPA 261153Z 25007KT 10SM SCT020 SCT033 SCT250 21/16 A2994 RMK AO2 SLP136 T02110161 10211 20189 53007
KTPA 261253Z 25007KT 10SM SCT023 23/17 A2995 RMK AO2 SLP140 T02280167
KTPA 261353Z 23006KT 10SM SCT024 23/17 A2995 RMK AO2 SLP141 T02330167




Page loaded:  15:11 UTC  |   08:11 AM Pacific  |   09:11 AM Mountain  |   10:11 AM Central  |   11:11 AM Eastern

 

ADVISORIES

FORECASTS

FORECASTS

OBSERVATIONS

USER TOOLS

ABOUT US